Airfield :
LOGIN :

Register | Disclaimer

   EN    FR    IT 

 










Legend :    VFR   Marginal VFR   IFR   Intensive IFR   Very Intensive IFR
Visi :
Ceiling :
>= 8 km
>= 3000ft
5 to 8 km
1000 to 3000 ft
1500m to 5 km
500 to 1000 ft
800 to 1500m
200 to 500 ft
< 800m
< 200 ft
Symbols :   Thunderstorms  Fog  Heavy snow  Heavy precipitations  Wind > 20 kt
SIGMETs :     Misc.  Thunderstorms  Icing  Turbulence  Mountain Waves  Volcanic Ashes






- Airport Elevation : 459 ft
- IATA code : CER


LFRC - Cherbourg / Maupertus

CURRENT METAR :
  • 241200Z AUTO 11009KT 7000 OVC019 06/03 Q1022 TEMPO BKN005

EXPIRED METARs :
  • 241130Z AUTO 11008KT 7000 FEW008 BKN019 05/03 Q1023 TEMPO BKN005
  • 241100Z AUTO 10008KT 5000 BR BKN009 OVC016 05/04 Q1023 BECMG OVC017
  • 241030Z AUTO 10008KT 6000 FEW009 OVC016 05/03 Q1023 TEMPO BKN005
  • 241000Z AUTO 11008KT 6000 BKN009 OVC013 05/03 Q1023 NOSIG
  • 240930Z AUTO 11007KT 5000 BR BKN008 OVC019 05/04 Q1023 NOSIG

TAF TAF LFRC
Valid from the 24 at 12:00 until the 24 at 21:00 UTC


241100Z 2412/2421 VRB05KT 5000 BR BKN015
PROB30
TEMPO 2412/2421 BKN005



MET'MAP, your aeronautical weather chart ! - Copyright ORBIFLY December 2007 - Disclaimer

ORBIFLY MET'MAP TEAM :

Programming & Development : Alexandra Zaïnal
Concept & original design : Baudouin d'Aumeries
Assistance for programming : Marc-Olivier Méhu
Technical & hardware support : Manuel Goepfert

Contact : metmap@orbifly.com




SOURCES & CREDITS :

   NOAA